»·PEaware :: N145VF KLAS-KSNA

N145VF :: KLAS-KSNA

FLIGHT INFORMATION

Flight Status: Arrived
Operator: Privately registered:
United States
More flights under this callsign
Pilot: Adam K. (2650)
Aircraft: Unknown
(VIPJ)
More flights by this aircraft type
Origin: KLAS McCarran Intl
United States
Destination: KSNA John Wayne-Orange Co
United States
More flights between these airports :: More routes between these airports
Route: +BOACH8 WHIGG FEYLA DSNEE1
File this flight plan on PilotEdge
Remarks:
Altitude:
(Current/Filed)
24,000ft
Speed:
(Current/Filed)
425kts
Departed: 04-Dec-17 01:45 PM
Arrived: 04-Dec-17 02:29 PM
Distance/Time
Traveled:
197nm/0:44
Distance/Time
To Go:
Arrived

Flight Plot

Page will automatically refresh every two minutes.

Flight plan parsing failed; only flown route is shown


Map Options




Map Legend


Flown Route
Filed Route
Departure Airport
Arrival Airport
Navaid (VOR, NDB)
Fix

Horizontal Profiles

Position Reports

Time Latitude Longitude Heading Altitude Ground
Speed
04-Dec-17 13:29 36.082653 -115.170018 88 2164ft 0kts
04-Dec-17 13:30 36.082653 -115.170018 88 2164ft 0kts
04-Dec-17 13:31 36.082653 -115.170018 88 2164ft 0kts
04-Dec-17 13:32 36.082653 -115.170018 88 2164ft 0kts
04-Dec-17 13:33 36.082653 -115.170018 88 2164ft 0kts
04-Dec-17 13:34 36.082653 -115.170018 88 2164ft 0kts
04-Dec-17 13:35 36.082653 -115.170018 88 2164ft 0kts
04-Dec-17 13:36 36.082653 -115.170018 88 2164ft 0kts
04-Dec-17 13:37 36.082653 -115.170018 88 2164ft 0kts
04-Dec-17 13:38 36.082653 -115.170018 88 2164ft 0kts
04-Dec-17 13:39 36.082653 -115.170018 88 2164ft 0kts
04-Dec-17 13:40 36.082653 -115.170018 88 2164ft 0kts
04-Dec-17 13:41 36.082653 -115.170018 88 2164ft 0kts
04-Dec-17 13:42 36.082653 -115.170018 88 2164ft 0kts
04-Dec-17 13:43 36.082653 -115.170018 88 2164ft 0kts
04-Dec-17 13:44 36.082653 -115.170018 88 2164ft 0kts
04-Dec-17 13:45 36.082653 -115.170018 88 2164ft 0kts
04-Dec-17 13:46 36.082653 -115.170018 88 2164ft 0kts
04-Dec-17 13:47 36.078707 -115.170836 205 2176ft 24kts
04-Dec-17 13:48 36.075773 -115.170871 131 2183ft 2kts
04-Dec-17 13:49 36.075545 -115.170143 27 2182ft 5kts
04-Dec-17 13:50 36.092865 -115.159013 25 2711ft 201kts
04-Dec-17 13:51 36.140752 -115.170955 281 5067ft 242kts
04-Dec-17 13:52 36.119029 -115.254843 252 8353ft 259kts
04-Dec-17 13:53 36.060662 -115.311546 204 11825ft 306kts
04-Dec-17 13:54 35.979330 -115.350302 207 15082ft 324kts
04-Dec-17 13:55 35.891898 -115.375793 171 17890ft 359kts
04-Dec-17 13:56 35.793910 -115.339536 168 20186ft 379kts
04-Dec-17 13:57 35.691664 -115.309600 201 22196ft 364kts
04-Dec-17 13:58 35.618460 -115.376029 238 24228ft 327kts
04-Dec-17 13:59 35.552433 -115.464082 237 24222ft 371kts
04-Dec-17 14:00 35.480710 -115.560413 237 24209ft 386kts
04-Dec-17 14:01 35.409149 -115.656815 237 24214ft 381kts
04-Dec-17 14:02 35.338167 -115.752211 236 24222ft 380kts
04-Dec-17 14:03 35.266879 -115.847742 237 24217ft 380kts
04-Dec-17 14:04 35.194720 -115.941847 235 24213ft 381kts
04-Dec-17 14:05 35.122815 -116.032599 235 24216ft 390kts
04-Dec-17 14:06 35.047281 -116.127567 235 24203ft 382kts
04-Dec-17 14:07 34.973860 -116.219789 234 24211ft 373kts
04-Dec-17 14:08 34.903277 -116.308122 233 24198ft 354kts
04-Dec-17 14:09 34.836585 -116.392563 233 24184ft 340kts
04-Dec-17 14:10 34.772715 -116.473851 233 24185ft 333kts
04-Dec-17 14:11 34.709134 -116.554667 232 24173ft 332kts
04-Dec-17 14:12 34.639344 -116.627573 225 22193ft 332kts
04-Dec-17 14:13 34.568421 -116.696963 224 20181ft 324kts
04-Dec-17 14:14 34.499225 -116.765687 228 20160ft 322kts
04-Dec-17 14:15 34.434094 -116.841110 227 17731ft 327kts
04-Dec-17 14:16 34.370804 -116.914394 227 16132ft 304kts
04-Dec-17 14:17 34.307423 -116.987617 226 15057ft 325kts
04-Dec-17 14:18 34.238069 -117.054199 214 13211ft 325kts
04-Dec-17 14:19 34.161116 -117.107616 207 12043ft 322kts
04-Dec-17 14:20 34.078566 -117.152248 207 12035ft 328kts
04-Dec-17 14:21 33.996065 -117.198783 220 11908ft 328kts
04-Dec-17 14:22 33.938208 -117.277629 232 9443ft 313kts
04-Dec-17 14:23 33.883510 -117.354994 233 8011ft 285kts
04-Dec-17 14:24 33.836386 -117.421562 234 8020ft 255kts
04-Dec-17 14:25 33.803833 -117.492573 253 8019ft 246kts
04-Dec-17 14:26 33.797180 -117.572371 271 7597ft 249kts
04-Dec-17 14:27 33.816695 -117.645578 301 6003ft 200kts
04-Dec-17 14:28 33.842968 -117.706378 301 4037ft 205kts
04-Dec-17 14:29 33.833031 -117.767016 226 3425ft 217kts
04-Dec-17 14:30 33.783176 -117.800640 205 2338ft 188kts
04-Dec-17 14:31 33.743282 -117.825982 203 1515ft 138kts
04-Dec-17 14:32 33.709896 -117.847150 203 717ft 128kts
04-Dec-17 14:33 33.680859 -117.865559 202 88ft 106kts
04-Dec-17 14:34 33.672096 -117.872324 254 60ft 0kts
04-Dec-17 14:35 33.672152 -117.873508 207 60ft 0kts
04-Dec-17 14:36 33.672153 -117.873508 207 60ft 0kts

Navigation Log

Ident Type
Flight plan parsing failed, navigation log unavailable